createdAt,value
2019-05-09T00:01:55.327Z,99878.77
2019-05-09T00:04:27.283Z,99873.66
2019-05-09T00:06:59.261Z,99859.23
2019-05-09T00:09:33.434Z,99864.44
2019-05-09T00:12:04.908Z,99871.85
2019-05-09T00:14:36.861Z,99861.80
2019-05-09T00:17:08.818Z,99851.86
2019-05-09T00:19:40.746Z,99851.33
2019-05-09T00:22:13.630Z,99853.99
2019-05-09T00:24:46.157Z,99849.19
2019-05-09T00:27:18.106Z,99847.63
2019-05-09T00:29:53.381Z,99851.48
2019-05-09T00:32:34.099Z,99848.87
2019-05-09T00:35:15.544Z,99844.33
2019-05-09T00:38:04.088Z,99840.81
2019-05-09T00:40:35.458Z,99840.31
2019-05-09T00:43:07.411Z,99844.41
2019-05-09T00:45:41.047Z,99844.77
2019-05-09T00:48:14.711Z,99844.95
2019-05-09T00:50:46.635Z,99845.84
2019-05-09T00:53:18.594Z,99845.09
2019-05-09T00:55:50.533Z,99852.83
2019-05-09T00:58:24.126Z,99852.27
2019-05-09T01:00:56.364Z,99849.44
2019-05-09T01:03:28.301Z,99850.85
2019-05-09T01:06:00.241Z,99852.11
2019-05-09T01:08:34.930Z,99850.50
2019-05-09T01:11:11.991Z,99851.98
2019-05-09T01:13:40.791Z,99846.52
2019-05-09T01:16:13.422Z,99856.67
2019-05-09T01:18:45.662Z,99848.94
2019-05-09T01:21:17.678Z,99847.00
2019-05-09T01:23:49.638Z,99845.16
2019-05-09T01:26:23.289Z,99846.34
2019-05-09T01:28:55.501Z,99850.70
2019-05-09T01:31:27.452Z,99843.33
2019-05-09T01:34:09.790Z,99843.26
2019-05-09T01:36:59.429Z,99844.71
2019-05-09T01:39:33.564Z,99843.63
2019-05-09T01:42:06.156Z,99844.69
2019-05-09T01:44:38.103Z,99838.00
2019-05-09T01:47:10.082Z,99838.40
2019-05-09T01:49:43.197Z,99845.34
2019-05-09T01:52:15.304Z,99837.80
2019-05-09T01:54:48.879Z,99836.69
2019-05-09T01:57:23.106Z,99836.19
2019-05-09T01:59:54.468Z,99833.59
2019-05-09T02:02:26.480Z,99834.67
2019-05-09T02:04:58.408Z,99831.16
2019-05-09T02:07:30.344Z,99830.27
2019-05-09T02:10:03.424Z,99822.23
2019-05-09T02:12:35.457Z,99824.24
2019-05-09T02:15:26.373Z,99827.38
2019-05-09T02:18:04.263Z,99828.42
2019-05-09T02:20:33.604Z,99817.56
2019-05-09T02:23:05.597Z,99816.97
2019-05-09T02:25:37.550Z,99817.70
2019-05-09T02:28:09.501Z,99815.09
2019-05-09T02:30:44.773Z,99816.34
2019-05-09T02:33:15.079Z,99814.87
2019-05-09T02:35:52.849Z,99807.00
2019-05-09T02:38:20.923Z,99811.19
2019-05-09T02:40:52.932Z,99807.76
2019-05-09T02:43:24.860Z,99810.88
2019-05-09T02:45:59.564Z,99809.50
2019-05-09T02:48:31.931Z,99812.44
2019-05-09T02:51:04.093Z,99811.64
2019-05-09T02:53:39.053Z,99807.92
2019-05-09T02:56:09.656Z,99805.62
2019-05-09T02:58:43.215Z,99809.83
2019-05-09T03:01:25.516Z,99820.42
2019-05-09T03:03:58.899Z,99814.50
2019-05-09T03:06:31.160Z,99820.13
2019-05-09T03:09:03.500Z,99809.80
2019-05-09T03:11:38.528Z,99809.34
2019-05-09T03:14:09.483Z,99811.02
2019-05-09T03:16:41.570Z,99812.44
2019-05-09T03:19:13.510Z,99821.16
2019-05-09T03:21:49.776Z,99810.36
2019-05-09T03:24:21.729Z,99812.27
2019-05-09T03:27:01.197Z,99809.80
2019-05-09T03:29:35.090Z,99814.14
2019-05-09T03:32:09.163Z,99815.72
2019-05-09T03:34:40.785Z,99813.88
2019-05-09T03:37:12.725Z,99813.45
2019-05-09T03:39:44.687Z,99813.48
2019-05-09T03:42:21.254Z,99815.95
2019-05-09T03:44:50.255Z,99813.95
2019-05-09T03:47:33.277Z,99817.96
2019-05-09T03:50:17.666Z,99822.47
2019-05-09T03:52:49.917Z,99825.73
2019-05-09T03:55:23.500Z,99820.66
2019-05-09T03:57:58.042Z,99821.75
2019-05-09T04:00:30.282Z,99773.08
2019-05-09T04:03:02.207Z,99821.78
2019-05-09T04:05:34.148Z,99829.28
2019-05-09T04:08:18.541Z,99821.05
2019-05-09T04:10:53.013Z,99829.94
2019-05-09T04:13:28.334Z,99829.64
2019-05-09T04:16:00.468Z,99828.00
2019-05-09T04:18:32.428Z,99830.83
2019-05-09T04:21:04.371Z,99830.83
2019-05-09T04:23:37.905Z,99831.42
2019-05-09T04:26:11.791Z,99834.22
2019-05-09T04:28:44.694Z,99841.46
2019-05-09T04:31:17.812Z,99846.98
2019-05-09T04:33:49.948Z,99844.12
2019-05-09T04:36:23.637Z,99851.34
2019-05-09T04:38:57.474Z,99853.97
2019-05-09T04:41:29.228Z,99839.66
2019-05-09T04:44:05.030Z,99845.51
2019-05-09T04:46:34.881Z,99858.15
2019-05-09T04:49:08.170Z,99872.73
2019-05-09T04:51:40.309Z,99872.40
2019-05-09T04:54:12.315Z,99873.52
2019-05-09T04:56:44.336Z,99880.03
2019-05-09T04:59:17.916Z,99887.11
2019-05-09T05:01:51.764Z,99891.88
2019-05-09T05:04:25.374Z,99890.23
2019-05-09T05:06:58.456Z,99895.77
2019-05-09T05:09:31.146Z,99905.05
2019-05-09T05:12:03.113Z,99897.05
2019-05-09T05:14:35.064Z,99902.77
2019-05-09T05:17:11.208Z,99904.68
2019-05-09T05:19:42.062Z,99908.46
2019-05-09T05:22:18.495Z,99909.25
2019-05-09T05:24:55.449Z,99908.03
2019-05-09T05:27:27.850Z,99910.64
2019-05-09T05:29:59.734Z,99912.28
2019-05-09T05:32:45.454Z,99912.28
2019-05-09T05:35:19.037Z,99913.54
2019-05-09T05:37:51.033Z,99915.45
2019-05-09T05:40:22.975Z,99912.19
2019-05-09T05:42:54.907Z,99920.45
2019-05-09T05:45:29.520Z,99921.84
2019-05-09T05:48:07.906Z,99931.69
2019-05-09T05:50:40.034Z,99932.22
2019-05-09T05:53:11.970Z,99924.52
2019-05-09T05:55:43.964Z,99931.80
2019-05-09T05:58:18.000Z,99925.34
2019-05-09T06:00:49.829Z,99936.20
2019-05-09T06:03:23.042Z,99933.70
2019-05-09T06:05:55.276Z,99933.64
2019-05-09T06:08:27.639Z,99937.07
2019-05-09T06:10:59.618Z,99944.25
2019-05-09T06:13:31.547Z,99953.17
2019-05-09T06:16:03.495Z,99951.53
2019-05-09T06:18:38.286Z,99951.47
2019-05-09T06:21:09.317Z,99957.23
2019-05-09T06:23:41.258Z,99957.70
2019-05-09T06:26:13.192Z,99956.19
2019-05-09T06:28:45.206Z,99959.02
2019-05-09T06:31:17.892Z,99958.94
2019-05-09T06:33:53.536Z,99969.06
2019-05-09T06:36:23.799Z,99974.39
2019-05-09T06:38:55.750Z,99971.27
2019-05-09T06:41:28.550Z,99975.41
2019-05-09T06:44:14.223Z,99976.59
2019-05-09T06:46:44.112Z,99973.27
2019-05-09T06:49:27.640Z,99970.17
2019-05-09T06:51:51.310Z,99973.23
2019-05-09T06:54:23.248Z,99976.94
2019-05-09T06:56:55.237Z,99978.35
2019-05-09T06:59:28.298Z,99993.59
2019-05-09T07:02:02.333Z,99993.44
2019-05-09T07:04:42.034Z,99999.93
2019-05-09T07:07:18.350Z,99996.68
2019-05-09T07:10:00.983Z,100001.48
2019-05-09T07:12:33.306Z,100003.73
2019-05-09T07:15:08.796Z,100006.48
2019-05-09T07:17:40.400Z,100004.53
2019-05-09T07:20:12.974Z,100006.04
2019-05-09T07:22:48.112Z,100006.95
2019-05-09T07:25:22.025Z,100002.27
2019-05-09T07:27:53.969Z,100003.93
2019-05-09T07:30:42.674Z,100002.92
2019-05-09T07:33:22.020Z,100009.63
2019-05-09T07:35:54.020Z,100012.55
2019-05-09T07:38:30.371Z,100009.13
2019-05-09T07:41:02.539Z,100011.52
2019-05-09T07:43:34.517Z,100013.36
2019-05-09T07:46:11.071Z,100009.73
2019-05-09T07:48:45.087Z,100007.90
2019-05-09T07:51:18.071Z,100004.36
2019-05-09T07:53:50.273Z,100003.80
2019-05-09T07:56:22.735Z,100005.94
2019-05-09T07:58:58.301Z,100008.59
2019-05-09T08:01:31.519Z,100010.67
2019-05-09T08:04:03.446Z,100009.89
2019-05-09T08:06:37.809Z,100013.03
2019-05-09T08:09:09.186Z,100016.28
2019-05-09T08:11:41.194Z,100023.25
2019-05-09T08:14:13.134Z,100027.06
2019-05-09T08:16:47.391Z,100032.64
2019-05-09T08:19:18.731Z,100035.51
2019-05-09T08:21:50.951Z,100039.11
2019-05-09T08:24:23.116Z,100040.69
2019-05-09T08:26:58.030Z,100045.92
2019-05-09T08:29:30.068Z,100053.83
2019-05-09T08:32:02.030Z,100060.86
2019-05-09T08:34:34.047Z,100063.72
2019-05-09T08:37:08.172Z,100063.74
2019-05-09T08:39:39.667Z,100062.14
2019-05-09T08:42:11.600Z,100061.45
2019-05-09T08:44:43.995Z,100062.36
2019-05-09T08:47:18.494Z,100067.05
2019-05-09T08:49:52.006Z,100059.02
2019-05-09T08:52:24.017Z,100059.36
2019-05-09T08:54:58.282Z,100064.59
2019-05-09T08:57:30.216Z,100070.09
2019-05-09T09:00:04.811Z,100073.56
2019-05-09T09:02:37.648Z,100073.45
2019-05-09T09:05:10.071Z,100069.68
2019-05-09T09:07:42.128Z,100077.87
2019-05-09T09:10:14.563Z,100066.38
2019-05-09T09:12:47.801Z,100062.13
2019-05-09T09:15:20.945Z,100060.34
2019-05-09T09:17:52.880Z,100058.33
2019-05-09T09:20:25.069Z,100059.88
2019-05-09T09:22:58.218Z,100061.00
2019-05-09T09:25:30.397Z,100054.23
2019-05-09T09:28:02.392Z,100059.11
2019-05-09T09:30:34.373Z,100066.52
2019-05-09T09:33:10.109Z,100071.95
2019-05-09T09:35:41.003Z,100072.41
2019-05-09T09:38:12.955Z,100072.83
2019-05-09T09:40:47.565Z,100069.32
2019-05-09T09:43:18.960Z,100069.66
2019-05-09T09:46:06.300Z,100070.00
2019-05-09T09:48:24.670Z,100076.09
2019-05-09T09:50:57.975Z,100079.34
2019-05-09T09:53:30.419Z,100083.05
2019-05-09T09:56:02.606Z,100086.12
2019-05-09T09:58:34.672Z,100083.88
2019-05-09T10:01:11.636Z,100085.86
2019-05-09T10:03:44.149Z,100086.41
2019-05-09T10:06:16.199Z,100084.75
2019-05-09T10:08:48.978Z,100087.72
2019-05-09T10:11:21.654Z,100089.72
2019-05-09T10:13:53.710Z,100087.30
2019-05-09T10:16:47.650Z,100090.16
2019-05-09T10:19:38.395Z,100092.70
2019-05-09T10:22:23.788Z,100089.59
2019-05-09T10:24:51.887Z,100087.64
2019-05-09T10:27:24.185Z,100087.73
2019-05-09T10:29:57.439Z,100081.43
2019-05-09T10:32:29.784Z,100087.42
2019-05-09T10:35:01.906Z,100094.87
2019-05-09T10:37:33.892Z,100090.86
2019-05-09T10:40:07.722Z,100089.27
2019-05-09T10:42:50.646Z,100085.75
2019-05-09T10:45:30.087Z,100091.63
2019-05-09T10:48:02.096Z,100089.67
2019-05-09T10:50:35.054Z,100088.45
2019-05-09T10:53:08.035Z,100087.72
2019-05-09T10:55:40.308Z,100092.18
2019-05-09T10:58:12.263Z,100088.86
2019-05-09T11:00:44.537Z,100084.73
2019-05-09T11:03:18.044Z,100091.48
2019-05-09T11:05:50.199Z,100088.50
2019-05-09T11:08:22.156Z,100090.89
2019-05-09T11:10:54.091Z,100096.64
2019-05-09T11:13:28.527Z,100095.13
2019-05-09T11:15:59.742Z,100099.39
2019-05-09T11:18:31.765Z,100097.27
2019-05-09T11:21:03.733Z,100101.45
2019-05-09T11:23:35.678Z,100105.44
2019-05-09T11:26:08.404Z,100102.74
2019-05-09T11:28:40.635Z,100100.15
2019-05-09T11:31:12.834Z,100101.26
2019-05-09T11:33:45.169Z,100102.34
2019-05-09T11:36:20.797Z,100102.36
2019-05-09T11:38:51.076Z,100099.75
2019-05-09T11:41:23.067Z,100097.24
2019-05-09T11:43:55.027Z,100099.20
2019-05-09T11:46:28.761Z,100093.84
2019-05-09T11:49:01.011Z,100101.63
2019-05-09T11:51:32.961Z,100066.80
2019-05-09T11:54:04.935Z,100108.27
2019-05-09T11:56:38.439Z,100098.33
2019-05-09T11:59:10.677Z,100101.50
2019-05-09T12:01:42.628Z,100106.20
2019-05-09T12:04:14.704Z,100109.13
2019-05-09T12:06:49.116Z,100107.53
2019-05-09T12:09:20.340Z,100102.22
2019-05-09T12:11:52.654Z,100109.41
2019-05-09T12:14:27.494Z,100110.88
2019-05-09T12:16:59.208Z,100107.44
2019-05-09T12:19:31.153Z,100112.39
2019-05-09T12:22:03.151Z,100109.39
2019-05-09T12:24:35.175Z,100108.98
2019-05-09T12:27:08.793Z,100109.66
2019-05-09T12:29:40.923Z,100110.34
2019-05-09T12:32:12.860Z,100110.40
2019-05-09T12:34:44.805Z,100103.86
2019-05-09T12:37:18.224Z,100102.62
2019-05-09T12:39:50.641Z,100110.50
2019-05-09T12:42:22.606Z,100105.65
2019-05-09T12:44:54.586Z,100103.42
2019-05-09T12:47:29.985Z,100108.70
2019-05-09T12:50:03.078Z,100110.52
2019-05-09T12:52:35.213Z,100109.67
2019-05-09T12:55:12.270Z,100108.55
2019-05-09T12:57:43.030Z,100102.63
2019-05-09T13:00:18.694Z,100107.73
2019-05-09T13:02:50.818Z,100111.50
2019-05-09T13:05:22.834Z,100113.88
2019-05-09T13:07:54.865Z,100116.34
2019-05-09T13:10:28.348Z,100120.17
2019-05-09T13:13:00.424Z,100121.59
2019-05-09T13:15:34.484Z,100123.66
2019-05-09T13:18:21.116Z,100122.13
2019-05-09T13:20:43.245Z,100121.21
2019-05-09T13:23:17.758Z,100119.18
2019-05-09T13:25:50.352Z,100111.89
2019-05-09T13:28:24.021Z,100115.47
2019-05-09T13:30:58.377Z,100106.69
2019-05-09T13:33:29.738Z,100118.53
2019-05-09T13:36:01.713Z,100116.22
2019-05-09T13:38:33.677Z,100119.09
2019-05-09T13:41:08.410Z,100117.22
2019-05-09T13:43:47.688Z,100120.43
2019-05-09T13:46:13.018Z,100119.83
2019-05-09T13:49:04.537Z,100121.04
2019-05-09T13:51:18.773Z,100126.64
2019-05-09T13:53:50.807Z,100137.03
2019-05-09T13:56:22.750Z,100141.47
2019-05-09T13:58:54.781Z,100148.56
2019-05-09T14:01:26.758Z,100154.61
2019-05-09T14:03:59.194Z,100154.67
2019-05-09T14:06:31.736Z,100153.54
2019-05-09T14:09:05.532Z,100157.33
2019-05-09T14:11:37.466Z,100158.35
2019-05-09T14:14:09.428Z,100166.94
2019-05-09T14:16:43.635Z,100167.86
2019-05-09T14:19:33.260Z,100168.75
2019-05-09T14:21:49.302Z,100174.92
2019-05-09T14:24:22.021Z,100166.58
2019-05-09T14:26:54.063Z,100157.36
2019-05-09T14:29:30.891Z,100152.51
2019-05-09T14:31:59.791Z,100155.46
2019-05-09T14:34:32.088Z,100154.25
2019-05-09T14:37:04.470Z,100154.02
2019-05-09T14:39:39.900Z,100149.09
2019-05-09T14:42:10.141Z,100150.31
2019-05-09T14:44:43.052Z,100148.53
2019-05-09T14:47:17.455Z,100151.07
2019-05-09T14:49:50.474Z,100153.18
2019-05-09T14:52:22.675Z,100161.93
2019-05-09T14:54:57.985Z,100162.17
2019-05-09T14:57:29.297Z,100166.47
2019-05-09T15:00:01.295Z,100169.73
2019-05-09T15:02:33.488Z,100174.45
2019-05-09T15:05:09.575Z,100177.55
2019-05-09T15:07:40.530Z,100179.94
2019-05-09T15:10:13.052Z,100182.70
2019-05-09T15:12:45.373Z,100180.61
2019-05-09T15:15:18.468Z,100182.77
2019-05-09T15:17:50.681Z,100181.92
2019-05-09T15:20:22.700Z,100130.91
2019-05-09T15:22:54.714Z,100173.42
2019-05-09T15:25:28.086Z,100176.64
2019-05-09T15:28:03.455Z,100178.74
2019-05-09T15:30:38.504Z,100176.46
2019-05-09T15:33:11.286Z,100188.31
2019-05-09T15:35:43.352Z,100186.30
2019-05-09T15:38:17.943Z,100188.53
2019-05-09T15:40:49.004Z,100189.28
2019-05-09T15:43:21.025Z,100194.66
2019-05-09T15:46:09.559Z,100195.41
2019-05-09T15:48:41.507Z,100189.97
2019-05-09T15:51:13.964Z,100183.86
2019-05-09T15:53:48.484Z,100187.81
2019-05-09T15:56:19.721Z,100178.68
2019-05-09T15:58:51.657Z,100183.18
2019-05-09T16:01:23.808Z,100184.92
2019-05-09T16:03:57.538Z,100189.11
2019-05-09T16:06:33.030Z,100190.25
2019-05-09T16:09:07.842Z,100187.48
2019-05-09T16:11:37.836Z,100186.73
2019-05-09T16:14:10.319Z,100182.38
2019-05-09T16:16:42.353Z,100186.24
2019-05-09T16:19:14.506Z,100191.10
2019-05-09T16:21:47.863Z,100194.50
2019-05-09T16:24:20.439Z,100192.67
2019-05-09T16:26:53.051Z,100192.87
2019-05-09T16:29:29.299Z,100196.09
2019-05-09T16:32:01.343Z,100193.58
2019-05-09T16:34:34.128Z,100190.82
2019-05-09T16:37:07.663Z,100178.31
2019-05-09T16:39:39.923Z,100187.25
2019-05-09T16:42:12.135Z,100188.61
2019-05-09T16:44:44.082Z,100158.17
2019-05-09T16:47:21.879Z,100196.48
2019-05-09T16:49:50.962Z,100201.39
2019-05-09T16:52:22.950Z,100203.27
2019-05-09T16:54:58.542Z,100206.53
2019-05-09T17:00:43.963Z,100209.95
2019-05-09T17:03:17.689Z,100213.27
2019-05-09T17:05:49.958Z,100216.42
2019-05-09T17:08:21.981Z,100219.62
2019-05-09T17:10:53.960Z,100214.73
2019-05-09T17:13:28.883Z,100217.05
2019-05-09T17:16:00.367Z,100221.74
2019-05-09T17:18:33.187Z,100221.08
2019-05-09T17:21:21.508Z,100220.25
2019-05-09T17:23:50.123Z,100223.48
2019-05-09T17:26:22.808Z,100233.96
2019-05-09T17:28:54.787Z,100239.41
2019-05-09T17:31:27.642Z,100268.72
2019-05-09T17:34:00.197Z,100272.25
2019-05-09T17:36:32.162Z,100267.19
2019-05-09T17:39:07.966Z,100272.19
2019-05-09T17:41:39.634Z,100275.69
2019-05-09T17:44:11.598Z,100283.18
2019-05-09T17:46:43.584Z,100277.78
2019-05-09T17:49:17.485Z,100281.23
2019-05-09T17:51:49.212Z,100287.75
2019-05-09T17:54:21.479Z,100293.44
2019-05-09T17:56:53.422Z,100290.39
2019-05-09T17:59:25.457Z,100289.86
2019-05-09T18:01:57.908Z,100299.77
2019-05-09T18:04:30.075Z,100296.29
2019-05-09T18:07:03.003Z,100291.08
2019-05-09T18:09:35.284Z,100294.14
2019-05-09T18:12:08.307Z,100287.14
2019-05-09T18:14:40.610Z,100286.34
2019-05-09T18:17:13.013Z,100285.38
2019-05-09T18:19:44.989Z,100289.16
2019-05-09T18:22:18.610Z,100294.66
2019-05-09T18:24:51.077Z,100292.22
2019-05-09T18:27:23.311Z,100292.75
2019-05-09T18:29:55.265Z,100294.74
2019-05-09T18:32:38.371Z,100303.05
2019-05-09T18:35:15.584Z,100306.55
2019-05-09T18:37:48.283Z,100310.28
2019-05-09T18:40:20.957Z,100310.42
2019-05-09T18:42:52.919Z,100310.85
2019-05-09T18:45:28.082Z,100314.06
2019-05-09T18:47:59.635Z,100313.84
2019-05-09T18:50:31.576Z,100318.17
2019-05-09T18:53:03.609Z,100325.77
2019-05-09T18:55:35.550Z,100329.57
2019-05-09T18:58:07.589Z,100338.37
2019-05-09T19:00:39.575Z,100347.72
2019-05-09T19:03:11.608Z,100356.20
2019-05-09T19:05:43.775Z,100348.80
2019-05-09T19:08:15.722Z,100347.19
2019-05-09T19:10:51.809Z,100354.27
2019-05-09T19:13:21.322Z,100365.63
2019-05-09T19:16:04.002Z,100360.34
2019-05-09T19:18:43.662Z,100362.13
2019-05-09T19:21:19.813Z,100364.93
2019-05-09T19:23:51.748Z,100370.15
2019-05-09T19:26:39.136Z,100371.44
2019-05-09T19:29:11.165Z,100366.41
2019-05-09T19:31:43.146Z,100366.41
2019-05-09T19:34:15.174Z,100368.09
2019-05-09T19:36:47.214Z,100371.66
2019-05-09T19:39:19.155Z,100366.54
2019-05-09T19:41:51.599Z,100365.31
2019-05-09T19:44:23.582Z,100364.95
2019-05-09T19:46:56.045Z,100364.22
2019-05-09T19:49:27.978Z,100367.55
2019-05-09T19:52:00.211Z,100356.03
2019-05-09T19:54:32.546Z,100361.00
2019-05-09T19:57:04.523Z,100366.67
2019-05-09T19:59:36.467Z,100366.18
2019-05-09T20:02:08.439Z,100370.27
2019-05-09T20:04:40.709Z,100371.42
2019-05-09T20:07:12.662Z,100375.42
2019-05-09T20:09:52.860Z,100376.81
2019-05-09T20:12:26.467Z,100378.41
2019-05-09T20:14:58.416Z,100381.51
2019-05-09T20:17:30.386Z,100379.63
2019-05-09T20:20:02.423Z,100377.22
2019-05-09T20:22:34.343Z,100376.86
2019-05-09T20:25:07.994Z,100380.63
2019-05-09T20:27:40.010Z,100381.21
2019-05-09T20:30:12.404Z,100375.22
2019-05-09T20:32:44.313Z,100382.25
2019-05-09T20:35:16.571Z,100392.97
2019-05-09T20:37:48.883Z,100393.48
2019-05-09T20:40:21.348Z,100394.41
2019-05-09T20:42:53.516Z,100403.69
2019-05-09T20:45:25.642Z,100407.41
2019-05-09T20:47:57.844Z,100404.99
2019-05-09T20:50:30.285Z,100410.31
2019-05-09T20:53:09.487Z,100409.19
2019-05-09T20:55:36.323Z,100409.14
2019-05-09T20:58:08.467Z,100408.78
2019-05-09T21:00:40.643Z,100405.48
2019-05-09T21:03:12.776Z,100402.91
2019-05-09T21:05:45.257Z,100397.47
2019-05-09T21:08:17.405Z,100399.48
2019-05-09T21:10:49.523Z,100394.77
2019-05-09T21:13:23.514Z,100399.00
2019-05-09T21:15:55.692Z,100402.48
2019-05-09T21:18:27.926Z,100394.99
2019-05-09T21:21:00.109Z,100389.80
2019-05-09T21:23:35.268Z,100392.90
2019-05-09T21:26:07.946Z,100390.06
2019-05-09T21:28:40.965Z,100387.94
2019-05-09T21:31:15.345Z,100388.01
2019-05-09T21:33:47.806Z,100386.71
2019-05-09T21:36:19.754Z,100384.33
2019-05-09T21:38:51.777Z,100381.59
2019-05-09T21:41:23.737Z,100383.04
2019-05-09T21:43:55.686Z,100377.16
2019-05-09T21:46:27.650Z,100379.63
2019-05-09T21:48:59.606Z,100376.61
2019-05-09T21:51:31.966Z,100383.30
2019-05-09T21:54:04.249Z,100378.14
2019-05-09T21:56:36.530Z,100382.52
2019-05-09T21:59:08.654Z,100387.19
2019-05-09T22:01:41.308Z,100386.65
2019-05-09T22:04:13.324Z,100390.05
2019-05-09T22:06:45.697Z,100386.51
2019-05-09T22:09:17.665Z,100395.75
2019-05-09T22:11:49.602Z,100392.90
2019-05-09T22:14:21.789Z,100395.34
2019-05-09T22:16:56.733Z,100395.36
2019-05-09T22:19:28.954Z,100392.19
2019-05-09T22:22:00.901Z,100396.27
2019-05-09T22:24:32.880Z,100394.56
2019-05-09T22:27:05.207Z,100392.34
2019-05-09T22:29:37.150Z,100392.09
2019-05-09T22:32:09.153Z,100394.66
2019-05-09T22:34:41.393Z,100401.01
2019-05-09T22:37:13.433Z,100396.89
2019-05-09T22:39:45.439Z,100401.81
2019-05-09T22:42:17.400Z,100398.12
2019-05-09T22:47:39.236Z,100402.27
2019-05-09T22:50:11.695Z,100403.93
2019-05-09T22:52:43.668Z,100409.19
2019-05-09T22:55:15.838Z,100407.05
2019-05-09T22:57:48.110Z,100403.45
2019-05-09T23:00:20.264Z,100399.75
2019-05-09T23:02:52.547Z,100397.94
2019-05-09T23:05:24.577Z,100400.59
2019-05-09T23:07:56.679Z,100397.34
2019-05-09T23:10:28.634Z,100398.67
2019-05-09T23:13:00.570Z,100393.97
2019-05-09T23:15:32.587Z,100393.73
2019-05-09T23:18:04.509Z,100391.55
2019-05-09T23:20:43.938Z,100390.04
2019-05-09T23:23:29.614Z,100389.63
2019-05-09T23:26:01.632Z,100396.77
2019-05-09T23:28:33.593Z,100391.33
2019-05-09T23:31:07.511Z,100389.20
2019-05-09T23:33:40.939Z,100389.03
2019-05-09T23:36:12.906Z,100392.52
2019-05-09T23:39:03.058Z,100391.48
2019-05-09T23:41:35.089Z,100389.14
2019-05-09T23:44:07.145Z,100389.23
2019-05-09T23:46:39.177Z,100388.92
2019-05-09T23:49:11.186Z,100386.27
2019-05-09T23:51:52.511Z,100382.03
2019-05-09T23:54:46.355Z,100382.70
2019-05-09T23:57:34.013Z,100388.30
